createdAt,value
2022-07-27T00:01:24.042Z,99.90
2022-07-27T00:03:52.987Z,99.90
2022-07-27T00:06:23.217Z,99.90
2022-07-27T00:08:52.041Z,99.90
2022-07-27T00:11:20.736Z,99.90
2022-07-27T00:13:49.576Z,99.90
2022-07-27T00:16:18.642Z,99.90
2022-07-27T00:18:47.448Z,99.90
2022-07-27T00:21:16.159Z,99.90
2022-07-27T00:23:46.334Z,99.90
2022-07-27T00:26:15.278Z,99.90
2022-07-27T00:28:44.048Z,99.90
2022-07-27T00:31:12.829Z,99.90
2022-07-27T00:33:41.711Z,99.90
2022-07-27T00:36:10.998Z,99.90
2022-07-27T00:38:39.655Z,99.90
2022-07-27T00:41:09.769Z,99.90
2022-07-27T00:43:52.973Z,99.90
2022-07-27T00:46:22.201Z,99.90
2022-07-27T00:48:51.371Z,99.90
2022-07-27T00:51:22.462Z,99.90
2022-07-27T00:53:53.160Z,99.90
2022-07-27T00:56:24.100Z,99.90
2022-07-27T00:58:54.947Z,99.90
2022-07-27T01:01:23.820Z,99.90
2022-07-27T01:03:52.665Z,99.90
2022-07-27T01:06:26.831Z,99.90
2022-07-27T01:09:18.664Z,99.90
2022-07-27T01:11:50.019Z,99.90
2022-07-27T01:14:19.284Z,99.90
2022-07-27T01:16:48.054Z,99.90
2022-07-27T01:19:16.805Z,99.90
2022-07-27T01:21:47.075Z,99.90
2022-07-27T01:24:15.937Z,99.90
2022-07-27T01:26:44.996Z,99.90
2022-07-27T01:29:14.185Z,99.90
2022-07-27T01:31:43.288Z,99.90
2022-07-27T01:34:11.975Z,99.90
2022-07-27T01:36:40.909Z,99.90
2022-07-27T01:39:11.337Z,99.90
2022-07-27T01:41:40.224Z,99.90
2022-07-27T01:44:09.225Z,99.90
2022-07-27T01:46:38.019Z,99.90
2022-07-27T01:49:07.429Z,99.90
2022-07-27T01:51:36.214Z,99.90
2022-07-27T01:54:05.162Z,99.90
2022-07-27T01:56:35.274Z,99.90
2022-07-27T01:59:03.943Z,99.90
2022-07-27T02:01:32.719Z,99.90
2022-07-27T02:04:01.381Z,99.90
2022-07-27T02:06:30.118Z,99.90
2022-07-27T02:08:58.805Z,99.90
2022-07-27T02:11:44.572Z,99.90
2022-07-27T02:14:14.706Z,99.90
2022-07-27T02:16:43.568Z,99.90
2022-07-27T02:19:12.624Z,99.90
2022-07-27T02:21:41.584Z,99.90
2022-07-27T02:24:10.679Z,99.90
2022-07-27T02:26:39.542Z,99.90
2022-07-27T02:29:08.680Z,99.90
2022-07-27T02:31:39.159Z,99.90
2022-07-27T02:34:07.837Z,99.90
2022-07-27T02:36:36.574Z,99.90
2022-07-27T02:39:05.668Z,99.90
2022-07-27T02:41:34.368Z,99.90
2022-07-27T02:44:03.406Z,99.90
2022-07-27T02:46:32.187Z,99.90
2022-07-27T02:49:02.365Z,99.90
2022-07-27T02:51:31.250Z,99.90
2022-07-27T02:54:00.094Z,99.90
2022-07-27T02:56:29.515Z,99.90
2022-07-27T02:58:58.492Z,99.90
2022-07-27T03:01:27.381Z,99.90
2022-07-27T03:03:56.191Z,99.90
2022-07-27T03:06:26.294Z,99.90
2022-07-27T03:08:54.969Z,99.90
2022-07-27T03:11:23.661Z,99.90
2022-07-27T03:13:52.579Z,99.90
2022-07-27T03:16:21.303Z,99.90
2022-07-27T03:18:50.035Z,99.90
2022-07-27T03:21:19.104Z,99.90
2022-07-27T03:23:52.190Z,99.90
2022-07-27T03:26:21.172Z,99.90
2022-07-27T03:28:50.013Z,99.90
2022-07-27T03:31:19.005Z,99.90
2022-07-27T03:33:47.973Z,99.90
2022-07-27T03:36:16.855Z,99.90
2022-07-27T03:38:45.751Z,99.90
2022-07-27T03:41:15.909Z,99.90
2022-07-27T03:43:44.759Z,99.90
2022-07-27T03:46:13.683Z,99.90
2022-07-27T03:48:42.559Z,99.90
2022-07-27T03:51:11.423Z,99.90
2022-07-27T03:53:40.253Z,99.90
2022-07-27T03:56:09.042Z,99.90
2022-07-27T03:58:39.324Z,99.90
2022-07-27T04:01:08.199Z,99.90
2022-07-27T04:03:39.984Z,99.90
2022-07-27T04:06:12.805Z,99.90
2022-07-27T04:08:41.574Z,99.90
2022-07-27T04:11:10.434Z,99.90
2022-07-27T04:13:46.756Z,99.90
2022-07-27T04:16:16.602Z,99.90
2022-07-27T04:18:45.731Z,99.90
2022-07-27T04:21:16.293Z,99.90
2022-07-27T04:23:45.032Z,99.90
2022-07-27T04:26:13.769Z,99.90
2022-07-27T04:28:44.608Z,99.90
2022-07-27T04:31:13.448Z,99.90
2022-07-27T04:33:42.284Z,99.90
2022-07-27T04:36:11.230Z,99.90
2022-07-27T04:38:39.970Z,99.90
2022-07-27T04:41:08.770Z,99.90
2022-07-27T04:43:37.543Z,99.90
2022-07-27T04:46:11.883Z,99.90
2022-07-27T04:48:49.156Z,99.90
2022-07-27T04:51:19.209Z,99.90
2022-07-27T04:53:53.939Z,99.90
2022-07-27T04:56:27.446Z,99.90
2022-07-27T04:58:56.751Z,99.90
2022-07-27T05:01:31.627Z,99.90
2022-07-27T05:04:04.239Z,99.90
2022-07-27T05:06:33.313Z,99.90
2022-07-27T05:09:02.197Z,99.90
2022-07-27T05:11:31.224Z,99.90
2022-07-27T05:14:00.767Z,99.90
2022-07-27T05:16:31.073Z,99.90
2022-07-27T05:19:00.225Z,99.90
2022-07-27T05:21:29.530Z,99.90
2022-07-27T05:23:58.535Z,99.90
2022-07-27T05:26:27.586Z,99.90
2022-07-27T05:28:56.239Z,99.90
2022-07-27T05:31:25.529Z,99.90
2022-07-27T05:33:58.405Z,99.90
2022-07-27T05:36:27.643Z,99.90
2022-07-27T05:38:56.473Z,99.90
2022-07-27T05:41:26.280Z,99.90
2022-07-27T05:43:56.291Z,99.90
2022-07-27T05:46:28.474Z,99.90
2022-07-27T05:49:02.984Z,99.90
2022-07-27T05:51:32.097Z,99.90
2022-07-27T05:54:01.154Z,99.90
2022-07-27T05:56:29.975Z,99.90
2022-07-27T05:58:59.938Z,99.90
2022-07-27T06:01:31.979Z,99.90
2022-07-27T06:04:02.504Z,99.90
2022-07-27T06:06:48.726Z,97.80
2022-07-27T06:09:18.124Z,97.20
2022-07-27T06:11:47.227Z,95.00
2022-07-27T06:14:16.033Z,92.80
2022-07-27T06:16:44.822Z,93.00
2022-07-27T06:19:15.380Z,92.90
2022-07-27T06:21:44.282Z,93.40
2022-07-27T06:24:13.051Z,94.50
2022-07-27T06:26:41.749Z,94.70
2022-07-27T06:29:11.137Z,95.20
2022-07-27T06:31:40.169Z,94.60
2022-07-27T06:34:11.974Z,91.80
2022-07-27T06:36:43.095Z,92.70
2022-07-27T06:39:12.368Z,92.60
2022-07-27T06:41:41.419Z,90.10
2022-07-27T06:44:10.121Z,87.00
2022-07-27T06:46:39.058Z,85.60
2022-07-27T06:49:07.847Z,85.00
2022-07-27T06:51:36.930Z,85.80
2022-07-27T06:54:08.245Z,85.80
2022-07-27T06:56:37.092Z,84.50
2022-07-27T06:59:06.192Z,83.00
2022-07-27T07:01:35.070Z,81.40
2022-07-27T07:04:03.902Z,80.90
2022-07-27T07:06:32.641Z,78.50
2022-07-27T07:09:01.312Z,77.50
2022-07-27T07:11:31.534Z,77.10
2022-07-27T07:14:02.314Z,77.80
2022-07-27T07:16:31.076Z,77.30
2022-07-27T07:18:59.879Z,76.30
2022-07-27T07:21:28.597Z,74.60
2022-07-27T07:23:57.399Z,71.20
2022-07-27T07:26:26.054Z,70.30
2022-07-27T07:28:56.590Z,69.60
2022-07-27T07:31:25.754Z,69.50
2022-07-27T07:33:54.666Z,68.90
2022-07-27T07:36:23.739Z,67.80
2022-07-27T07:38:52.529Z,65.10
2022-07-27T07:41:21.259Z,64.60
2022-07-27T07:43:49.973Z,64.90
2022-07-27T07:46:20.180Z,64.80
2022-07-27T07:48:49.319Z,63.10
2022-07-27T07:51:18.104Z,61.90
2022-07-27T07:53:46.853Z,60.00
2022-07-27T07:56:15.686Z,58.80
2022-07-27T07:58:44.478Z,59.50
2022-07-27T08:01:13.290Z,58.30
2022-07-27T08:03:48.719Z,58.10
2022-07-27T08:06:19.825Z,58.90
2022-07-27T08:08:48.532Z,60.30
2022-07-27T08:11:17.265Z,60.00
2022-07-27T08:13:46.121Z,59.20
2022-07-27T08:16:15.397Z,57.00
2022-07-27T08:18:45.550Z,56.50
2022-07-27T08:21:14.210Z,55.60
2022-07-27T08:23:43.111Z,55.80
2022-07-27T08:26:11.925Z,55.60
2022-07-27T08:28:40.644Z,54.80
2022-07-27T08:31:14.002Z,54.20
2022-07-27T08:33:45.426Z,53.70
2022-07-27T08:36:14.246Z,54.20
2022-07-27T08:38:43.055Z,54.70
2022-07-27T08:41:14.105Z,54.60
2022-07-27T08:43:45.832Z,54.50
2022-07-27T08:46:18.052Z,54.50
2022-07-27T08:48:49.136Z,55.00
2022-07-27T08:51:18.049Z,54.70
2022-07-27T08:53:53.998Z,54.10
2022-07-27T08:56:23.622Z,53.60
2022-07-27T08:58:52.500Z,53.10
2022-07-27T09:01:21.834Z,52.30
2022-07-27T09:03:52.044Z,52.30
2022-07-27T09:06:43.704Z,52.90
2022-07-27T09:09:15.217Z,53.20
2022-07-27T09:11:44.671Z,52.90
2022-07-27T09:14:14.677Z,52.20
2022-07-27T09:17:44.208Z,51.90
2022-07-27T09:19:56.634Z,51.70
2022-07-27T09:22:47.134Z,51.30
2022-07-27T09:25:33.082Z,50.90
2022-07-27T09:28:07.544Z,50.20
2022-07-27T09:30:44.044Z,51.10
2022-07-27T09:33:16.656Z,50.50
2022-07-27T09:35:59.495Z,50.00
2022-07-27T09:38:28.200Z,50.00
2022-07-27T09:41:01.654Z,50.20
2022-07-27T09:46:31.823Z,50.40
2022-07-27T09:49:01.271Z,50.80
2022-07-27T09:54:20.706Z,50.40
2022-07-27T09:57:02.373Z,49.90
2022-07-27T09:59:31.659Z,50.20
2022-07-27T10:02:01.822Z,51.70
2022-07-27T10:04:34.429Z,51.50
2022-07-27T10:07:09.355Z,51.40
2022-07-27T10:09:42.387Z,51.20
2022-07-27T10:12:11.868Z,50.80
2022-07-27T10:14:40.746Z,51.70
2022-07-27T10:17:13.208Z,52.10
2022-07-27T10:19:50.737Z,52.50
2022-07-27T10:22:54.583Z,53.20
2022-07-27T10:25:25.451Z,53.40
2022-07-27T10:28:11.924Z,53.30
2022-07-27T10:30:40.963Z,53.10
2022-07-27T10:33:38.138Z,53.00
2022-07-27T10:36:17.176Z,53.00
2022-07-27T10:38:53.481Z,53.00
2022-07-27T10:41:25.106Z,53.30
2022-07-27T10:44:30.642Z,53.40
2022-07-27T10:47:03.968Z,53.30
2022-07-27T10:49:40.402Z,53.10
2022-07-27T10:52:43.295Z,52.60
2022-07-27T10:55:51.702Z,52.60
2022-07-27T10:58:52.548Z,52.80
2022-07-27T11:01:23.945Z,53.20
2022-07-27T11:03:53.865Z,53.70
2022-07-27T11:06:42.167Z,54.30
2022-07-27T11:12:09.023Z,54.00
2022-07-27T11:14:48.416Z,53.90
2022-07-27T11:20:09.797Z,53.90
2022-07-27T11:25:30.160Z,54.10
2022-07-27T11:28:07.286Z,54.60
2022-07-27T11:30:36.209Z,54.00
2022-07-27T11:33:07.385Z,53.80
2022-07-27T11:35:36.407Z,54.20
2022-07-27T11:38:07.853Z,54.30
2022-07-27T11:40:59.962Z,54.50
2022-07-27T11:43:39.508Z,54.30
2022-07-27T11:46:19.992Z,53.50
2022-07-27T11:49:11.850Z,54.10
2022-07-27T11:51:43.902Z,55.30
2022-07-27T11:54:19.279Z,55.80
2022-07-27T11:56:52.769Z,55.70
2022-07-27T11:59:24.703Z,55.90
2022-07-27T12:01:55.960Z,57.00
2022-07-27T12:04:28.085Z,57.50
2022-07-27T12:07:03.598Z,57.80
2022-07-27T12:09:38.037Z,57.90
2022-07-27T12:12:15.987Z,58.00
2022-07-27T12:14:51.376Z,57.70
2022-07-27T12:17:27.775Z,58.00
2022-07-27T12:20:05.535Z,58.10
2022-07-27T12:22:38.466Z,57.50
2022-07-27T12:25:16.657Z,57.40
2022-07-27T12:27:57.569Z,57.20
2022-07-27T12:30:36.105Z,57.10
2022-07-27T12:33:07.618Z,57.40
2022-07-27T12:35:46.673Z,56.70
2022-07-27T12:38:16.412Z,57.00
2022-07-27T12:40:48.054Z,57.80
2022-07-27T12:43:20.332Z,57.70
2022-07-27T12:45:52.573Z,58.60
2022-07-27T12:48:27.280Z,59.10
2022-07-27T12:51:02.717Z,59.40
2022-07-27T12:53:32.695Z,59.30
2022-07-27T12:56:05.840Z,61.10
2022-07-27T12:58:34.876Z,60.80
2022-07-27T13:01:06.009Z,61.90
2022-07-27T13:03:36.732Z,62.60
2022-07-27T13:06:12.416Z,61.60
2022-07-27T13:08:42.196Z,62.60
2022-07-27T13:11:10.955Z,63.70
2022-07-27T13:13:42.890Z,64.50
2022-07-27T13:16:13.187Z,65.50
2022-07-27T13:18:42.073Z,65.80
2022-07-27T13:21:10.849Z,65.80
2022-07-27T13:23:39.652Z,65.60
2022-07-27T13:26:09.006Z,65.10
2022-07-27T13:28:37.714Z,64.90
2022-07-27T13:31:06.539Z,64.70
2022-07-27T13:33:36.656Z,64.60
2022-07-27T13:36:07.539Z,64.60
2022-07-27T13:38:36.378Z,64.30
2022-07-27T13:41:05.109Z,64.50
2022-07-27T13:43:33.910Z,65.00
2022-07-27T13:46:03.474Z,65.30
2022-07-27T13:48:32.731Z,65.60
2022-07-27T13:51:03.604Z,65.80
2022-07-27T13:53:32.426Z,66.10
2022-07-27T13:56:01.667Z,65.00
2022-07-27T13:58:31.857Z,66.80
2022-07-27T14:01:07.009Z,67.20
2022-07-27T14:03:36.378Z,67.10
2022-07-27T14:06:08.432Z,66.90
2022-07-27T14:08:37.788Z,66.40
2022-07-27T14:11:07.170Z,66.80
2022-07-27T14:13:36.213Z,66.70
2022-07-27T14:16:06.953Z,67.10
2022-07-27T14:18:36.686Z,67.60
2022-07-27T14:21:09.242Z,68.40
2022-07-27T14:23:39.129Z,69.70
2022-07-27T14:26:10.132Z,70.80
2022-07-27T14:28:40.655Z,71.70
2022-07-27T14:31:13.294Z,72.30
2022-07-27T14:33:42.485Z,73.10
2022-07-27T14:36:13.505Z,74.20
2022-07-27T14:38:44.352Z,75.10
2022-07-27T14:41:13.089Z,75.50
2022-07-27T14:43:42.135Z,74.80
2022-07-27T14:46:10.811Z,75.70
2022-07-27T14:49:05.141Z,77.40
2022-07-27T14:51:29.751Z,78.60
2022-07-27T14:53:58.496Z,80.40
2022-07-27T14:56:27.229Z,81.90
2022-07-27T14:58:55.982Z,83.50
2022-07-27T15:01:24.784Z,86.80
2022-07-27T15:03:55.504Z,88.40
2022-07-27T15:06:24.707Z,90.40
2022-07-27T15:08:55.272Z,92.00
2022-07-27T15:11:24.244Z,93.90
2022-07-27T15:13:53.205Z,96.10
2022-07-27T15:16:22.778Z,97.80
2022-07-27T15:18:53.596Z,99.80
2022-07-27T15:21:22.342Z,99.90
2022-07-27T15:23:51.066Z,99.90
2022-07-27T15:26:21.712Z,99.90
2022-07-27T15:28:50.383Z,99.90
2022-07-27T15:31:19.813Z,99.90
2022-07-27T15:33:48.575Z,99.90
2022-07-27T15:36:32.310Z,99.90
2022-07-27T15:39:08.613Z,99.90
2022-07-27T15:41:39.512Z,99.90
2022-07-27T15:44:09.121Z,99.90
2022-07-27T15:46:38.064Z,99.90
2022-07-27T15:49:07.050Z,99.90
2022-07-27T15:51:35.807Z,99.90
2022-07-27T15:54:05.504Z,99.90
2022-07-27T15:56:34.298Z,99.90
2022-07-27T15:59:04.454Z,99.90
2022-07-27T16:01:35.238Z,99.90
2022-07-27T16:04:05.436Z,99.90
2022-07-27T16:06:39.058Z,99.90
2022-07-27T16:09:09.651Z,98.80
2022-07-27T16:11:39.322Z,99.90
2022-07-27T16:14:09.489Z,99.90
2022-07-27T16:16:38.777Z,99.90
2022-07-27T16:19:12.733Z,99.90
2022-07-27T16:21:53.706Z,99.90
2022-07-27T16:24:26.473Z,96.30
2022-07-27T16:26:55.431Z,95.10
2022-07-27T16:29:27.455Z,96.10
2022-07-27T16:31:58.368Z,96.30
2022-07-27T16:34:27.884Z,96.90
2022-07-27T16:36:57.514Z,96.50
2022-07-27T16:39:27.110Z,95.90
2022-07-27T16:41:56.071Z,96.60
2022-07-27T16:44:26.250Z,97.80
2022-07-27T16:46:55.100Z,98.30
2022-07-27T16:49:33.390Z,99.30
2022-07-27T16:52:05.574Z,99.90
2022-07-27T16:54:39.381Z,99.60
2022-07-27T16:57:09.317Z,99.90
2022-07-27T16:59:40.196Z,99.90
2022-07-27T17:02:09.179Z,99.60
2022-07-27T17:04:38.465Z,99.30
2022-07-27T17:07:12.705Z,98.90
2022-07-27T17:09:42.836Z,98.50
2022-07-27T17:12:11.608Z,97.60
2022-07-27T17:14:48.229Z,97.80
2022-07-27T17:17:17.249Z,99.90
2022-07-27T17:19:46.015Z,99.90
2022-07-27T17:22:14.679Z,99.70
2022-07-27T17:24:43.803Z,99.00
2022-07-27T17:27:12.570Z,99.60
2022-07-27T17:29:41.899Z,99.90
2022-07-27T17:32:12.194Z,99.90
2022-07-27T17:34:41.763Z,99.90
2022-07-27T17:37:10.451Z,99.30
2022-07-27T17:39:39.554Z,98.20
2022-07-27T17:42:09.192Z,98.30
2022-07-27T17:44:39.525Z,98.20
2022-07-27T17:47:08.823Z,98.70
2022-07-27T17:49:38.932Z,99.90
2022-07-27T17:52:08.568Z,99.90
2022-07-27T17:54:37.356Z,99.90
2022-07-27T17:57:06.453Z,99.90
2022-07-27T17:59:37.956Z,99.90
2022-07-27T18:02:07.544Z,99.90
2022-07-27T18:04:39.388Z,99.90
2022-07-27T18:07:09.970Z,99.90
2022-07-27T18:09:39.297Z,99.90
2022-07-27T18:12:08.780Z,99.90
2022-07-27T18:14:38.552Z,99.90
2022-07-27T18:17:07.304Z,99.90
2022-07-27T18:19:36.242Z,99.90
2022-07-27T18:22:05.038Z,99.90
2022-07-27T18:24:35.984Z,99.90
2022-07-27T18:27:04.641Z,99.90
2022-07-27T18:29:33.341Z,99.90
2022-07-27T18:32:02.069Z,99.90
2022-07-27T18:34:30.887Z,99.90
2022-07-27T18:36:59.624Z,99.90
2022-07-27T18:39:32.376Z,99.90
2022-07-27T18:42:04.841Z,99.90
2022-07-27T18:44:38.816Z,99.90
2022-07-27T18:47:08.301Z,99.90
2022-07-27T18:49:37.224Z,99.90
2022-07-27T18:52:07.037Z,99.90
2022-07-27T18:54:35.857Z,99.90
2022-07-27T18:57:06.585Z,99.90
2022-07-27T18:59:41.070Z,99.90
2022-07-27T19:02:10.425Z,99.90
2022-07-27T19:04:39.252Z,99.90
2022-07-27T19:07:11.287Z,99.90
2022-07-27T19:09:44.901Z,99.90
2022-07-27T19:12:15.500Z,99.90
2022-07-27T19:14:44.304Z,99.90
2022-07-27T19:17:19.391Z,99.90
2022-07-27T19:19:48.786Z,99.90
2022-07-27T19:22:17.554Z,99.90
2022-07-27T19:24:51.416Z,99.90
2022-07-27T19:27:25.110Z,99.90
2022-07-27T19:29:53.798Z,99.90
2022-07-27T19:32:22.830Z,99.90
2022-07-27T19:34:51.587Z,99.90
2022-07-27T19:37:20.263Z,99.90
2022-07-27T19:40:02.180Z,99.90
2022-07-27T19:42:37.740Z,99.90
2022-07-27T19:45:08.358Z,99.90
2022-07-27T19:47:37.235Z,99.90
2022-07-27T19:50:07.718Z,99.90
2022-07-27T19:52:36.445Z,99.90
2022-07-27T19:55:06.642Z,99.90
2022-07-27T19:57:37.104Z,99.90
2022-07-27T20:00:09.074Z,99.90
2022-07-27T20:02:38.108Z,99.90
2022-07-27T20:05:08.066Z,99.90
2022-07-27T20:07:37.366Z,99.90
2022-07-27T20:10:07.204Z,99.90
2022-07-27T20:12:37.532Z,99.90
2022-07-27T20:15:07.363Z,99.90
2022-07-27T20:17:37.823Z,99.90
2022-07-27T20:20:11.543Z,99.90
2022-07-27T20:22:41.197Z,99.90
2022-07-27T20:25:11.195Z,99.90
2022-07-27T20:27:41.225Z,99.90
2022-07-27T20:30:12.354Z,99.90
2022-07-27T20:32:41.001Z,99.90
2022-07-27T20:35:10.036Z,99.90
2022-07-27T20:37:39.042Z,99.90
2022-07-27T20:40:11.760Z,99.90
2022-07-27T20:42:43.264Z,99.90
2022-07-27T20:45:14.718Z,99.90
2022-07-27T20:47:44.712Z,99.90
2022-07-27T20:50:15.746Z,99.90
2022-07-27T20:52:45.245Z,99.90
2022-07-27T20:55:14.196Z,99.90
2022-07-27T20:57:44.253Z,99.90
2022-07-27T21:00:14.324Z,99.90
2022-07-27T21:02:43.195Z,99.90
2022-07-27T21:05:12.039Z,99.90
2022-07-27T21:07:40.848Z,99.90
2022-07-27T21:10:11.005Z,99.90
2022-07-27T21:12:40.981Z,99.90
2022-07-27T21:15:13.610Z,99.90
2022-07-27T21:17:43.062Z,99.90
2022-07-27T21:20:15.072Z,99.90
2022-07-27T21:22:44.532Z,99.90
2022-07-27T21:25:15.347Z,99.90
2022-07-27T21:27:44.968Z,99.90
2022-07-27T21:30:17.262Z,99.90
2022-07-27T21:32:45.916Z,99.90
2022-07-27T21:35:14.568Z,99.90
2022-07-27T21:37:43.938Z,99.90
2022-07-27T21:40:14.051Z,99.90
2022-07-27T21:42:42.765Z,99.90
2022-07-27T21:45:12.275Z,99.90
2022-07-27T21:47:42.355Z,99.90
2022-07-27T21:50:11.803Z,99.90
2022-07-27T21:52:40.734Z,99.90
2022-07-27T21:55:10.207Z,99.90
2022-07-27T21:57:38.895Z,99.90
2022-07-27T22:00:09.723Z,99.90
2022-07-27T22:02:38.411Z,99.90
2022-07-27T22:05:09.961Z,99.90
2022-07-27T22:07:38.602Z,99.90
2022-07-27T22:10:08.935Z,99.90
2022-07-27T22:12:37.622Z,99.90
2022-07-27T22:15:07.210Z,99.90
2022-07-27T22:17:36.214Z,99.90
2022-07-27T22:20:20.321Z,99.90
2022-07-27T22:22:49.486Z,99.90
2022-07-27T22:25:19.547Z,99.90
2022-07-27T22:27:48.274Z,99.90
2022-07-27T22:30:17.555Z,99.90
2022-07-27T22:32:46.395Z,99.90
2022-07-27T22:35:15.179Z,99.90
2022-07-27T22:37:45.388Z,99.90
2022-07-27T22:40:14.280Z,99.90
2022-07-27T22:42:44.352Z,99.90
2022-07-27T22:45:13.498Z,99.90
2022-07-27T22:47:43.170Z,99.90
2022-07-27T22:50:13.960Z,99.90
2022-07-27T22:55:34.969Z,99.90
2022-07-27T22:58:03.906Z,99.90
2022-07-27T23:00:32.689Z,99.90
2022-07-27T23:03:03.050Z,99.90
2022-07-27T23:05:31.865Z,99.90
2022-07-27T23:08:02.043Z,99.90
2022-07-27T23:10:48.995Z,99.90
2022-07-27T23:13:19.734Z,99.90
2022-07-27T23:15:48.895Z,99.90
2022-07-27T23:18:18.379Z,99.90
2022-07-27T23:20:47.248Z,99.90
2022-07-27T23:23:17.371Z,99.90
2022-07-27T23:25:47.175Z,99.90
2022-07-27T23:28:16.502Z,99.90
2022-07-27T23:30:45.762Z,99.90
2022-07-27T23:33:14.524Z,99.90
2022-07-27T23:35:43.270Z,99.90
2022-07-27T23:38:12.120Z,99.90
2022-07-27T23:40:42.466Z,99.90
2022-07-27T23:43:11.190Z,99.90
2022-07-27T23:45:39.990Z,99.90
2022-07-27T23:48:08.820Z,99.90
2022-07-27T23:50:38.458Z,99.90
2022-07-27T23:53:09.196Z,99.90
2022-07-27T23:55:38.216Z,99.90
2022-07-27T23:58:08.201Z,99.90
